sensor_id;sensor_type;location;lat;lon;timestamp;P1;durP1;ratioP1;P2;durP2;ratioP2
72125;SDS011;59999;51.676;22.650;2023-03-16T00:02:03;20.05;;;7.22;;
72125;SDS011;59999;51.676;22.650;2023-03-16T00:04:30;24.85;;;8.80;;
72125;SDS011;59999;51.676;22.650;2023-03-16T00:06:57;22.98;;;8.55;;
72125;SDS011;59999;51.676;22.650;2023-03-16T00:09:23;20.07;;;8.00;;
72125;SDS011;59999;51.676;22.650;2023-03-16T00:12:04;21.23;;;7.38;;
72125;SDS011;59999;51.676;22.650;2023-03-16T00:14:31;28.98;;;8.20;;
72125;SDS011;59999;51.676;22.650;2023-03-16T00:16:57;23.40;;;7.50;;
72125;SDS011;59999;51.676;22.650;2023-03-16T00:19:23;24.10;;;8.10;;
72125;SDS011;59999;51.676;22.650;2023-03-16T00:21:49;21.67;;;7.53;;
72125;SDS011;59999;51.676;22.650;2023-03-16T00:24:16;23.65;;;7.47;;
72125;SDS011;59999;51.676;22.650;2023-03-16T00:26:44;24.10;;;8.27;;
72125;SDS011;59999;51.676;22.650;2023-03-16T00:29:11;32.13;;;10.98;;
72125;SDS011;59999;51.676;22.650;2023-03-16T00:31:38;24.60;;;7.70;;
72125;SDS011;59999;51.676;22.650;2023-03-16T00:34:09;22.63;;;7.93;;
72125;SDS011;59999;51.676;22.650;2023-03-16T00:36:36;21.38;;;7.97;;
72125;SDS011;59999;51.676;22.650;2023-03-16T00:39:03;24.58;;;8.40;;
72125;SDS011;59999;51.676;22.650;2023-03-16T00:41:30;25.70;;;9.43;;
72125;SDS011;59999;51.676;22.650;2023-03-16T00:43:55;23.90;;;7.73;;
72125;SDS011;59999;51.676;22.650;2023-03-16T00:46:21;22.88;;;8.43;;
72125;SDS011;59999;51.676;22.650;2023-03-16T00:48:50;23.00;;;7.82;;
72125;SDS011;59999;51.676;22.650;2023-03-16T00:51:17;23.20;;;8.30;;
72125;SDS011;59999;51.676;22.650;2023-03-16T00:53:44;21.17;;;7.70;;
72125;SDS011;59999;51.676;22.650;2023-03-16T00:56:11;24.50;;;8.60;;
72125;SDS011;59999;51.676;22.650;2023-03-16T00:58:38;24.25;;;8.95;;
72125;SDS011;59999;51.676;22.650;2023-03-16T01:01:09;27.38;;;8.75;;
72125;SDS011;59999;51.676;22.650;2023-03-16T01:03:39;24.42;;;8.70;;
72125;SDS011;59999;51.676;22.650;2023-03-16T01:06:07;28.57;;;9.17;;
72125;SDS011;59999;51.676;22.650;2023-03-16T01:08:37;20.48;;;7.32;;
72125;SDS011;59999;51.676;22.650;2023-03-16T01:11:06;25.65;;;9.38;;
72125;SDS011;59999;51.676;22.650;2023-03-16T01:13:35;26.05;;;7.72;;
72125;SDS011;59999;51.676;22.650;2023-03-16T01:16:01;19.17;;;6.60;;
72125;SDS011;59999;51.676;22.650;2023-03-16T01:18:28;23.70;;;7.23;;
72125;SDS011;59999;51.676;22.650;2023-03-16T01:21:02;20.58;;;7.05;;
72125;SDS011;59999;51.676;22.650;2023-03-16T01:23:29;30.23;;;10.52;;
72125;SDS011;59999;51.676;22.650;2023-03-16T01:25:56;28.42;;;9.00;;
72125;SDS011;59999;51.676;22.650;2023-03-16T01:28:24;27.40;;;8.93;;
72125;SDS011;59999;51.676;22.650;2023-03-16T01:30:51;24.93;;;8.93;;
72125;SDS011;59999;51.676;22.650;2023-03-16T01:33:20;25.27;;;8.82;;
72125;SDS011;59999;51.676;22.650;2023-03-16T01:35:56;25.38;;;8.23;;
72125;SDS011;59999;51.676;22.650;2023-03-16T01:38:23;18.20;;;6.30;;
72125;SDS011;59999;51.676;22.650;2023-03-16T01:40:50;24.88;;;8.73;;
72125;SDS011;59999;51.676;22.650;2023-03-16T01:43:18;22.07;;;7.73;;
72125;SDS011;59999;51.676;22.650;2023-03-16T01:48:24;26.25;;;8.85;;
72125;SDS011;59999;51.676;22.650;2023-03-16T01:50:51;28.92;;;9.80;;
72125;SDS011;59999;51.676;22.650;2023-03-16T01:53:18;43.05;;;14.35;;
72125;SDS011;59999;51.676;22.650;2023-03-16T01:55:47;36.43;;;11.43;;
72125;SDS011;59999;51.676;22.650;2023-03-16T01:58:14;75.78;;;22.83;;
72125;SDS011;59999;51.676;22.650;2023-03-16T02:00:40;54.95;;;16.60;;
72125;SDS011;59999;51.676;22.650;2023-03-16T02:03:08;45.05;;;14.63;;
72125;SDS011;59999;51.676;22.650;2023-03-16T02:05:46;49.70;;;17.10;;
72125;SDS011;59999;51.676;22.650;2023-03-16T02:08:18;23.88;;;9.63;;
72125;SDS011;59999;51.676;22.650;2023-03-16T02:10:47;26.13;;;10.73;;
72125;SDS011;59999;51.676;22.650;2023-03-16T02:13:13;37.10;;;15.32;;
72125;SDS011;59999;51.676;22.650;2023-03-16T02:15:39;51.00;;;19.50;;
72125;SDS011;59999;51.676;22.650;2023-03-16T02:18:05;46.83;;;19.10;;
72125;SDS011;59999;51.676;22.650;2023-03-16T02:23:14;24.17;;;8.60;;
72125;SDS011;59999;51.676;22.650;2023-03-16T02:28:49;25.73;;;7.37;;
72125;SDS011;59999;51.676;22.650;2023-03-16T02:31:25;19.08;;;6.97;;
72125;SDS011;59999;51.676;22.650;2023-03-16T02:33:52;23.60;;;8.27;;
72125;SDS011;59999;51.676;22.650;2023-03-16T02:36:19;20.70;;;7.22;;
72125;SDS011;59999;51.676;22.650;2023-03-16T02:38:45;25.20;;;7.45;;
72125;SDS011;59999;51.676;22.650;2023-03-16T02:43:43;18.33;;;6.47;;
72125;SDS011;59999;51.676;22.650;2023-03-16T02:46:20;23.08;;;6.88;;
72125;SDS011;59999;51.676;22.650;2023-03-16T02:51:44;16.35;;;6.40;;
72125;SDS011;59999;51.676;22.650;2023-03-16T02:54:11;18.80;;;6.43;;
72125;SDS011;59999;51.676;22.650;2023-03-16T02:56:38;17.83;;;6.28;;
72125;SDS011;59999;51.676;22.650;2023-03-16T02:59:04;22.40;;;6.82;;
72125;SDS011;59999;51.676;22.650;2023-03-16T03:01:30;22.67;;;6.57;;
72125;SDS011;59999;51.676;22.650;2023-03-16T03:03:59;19.15;;;6.53;;
72125;SDS011;59999;51.676;22.650;2023-03-16T03:06:26;23.93;;;8.23;;
72125;SDS011;59999;51.676;22.650;2023-03-16T03:08:52;23.98;;;8.65;;
72125;SDS011;59999;51.676;22.650;2023-03-16T03:11:18;19.50;;;7.65;;
72125;SDS011;59999;51.676;22.650;2023-03-16T03:13:45;22.50;;;8.93;;
72125;SDS011;59999;51.676;22.650;2023-03-16T03:16:12;27.27;;;9.65;;
72125;SDS011;59999;51.676;22.650;2023-03-16T03:18:38;23.33;;;9.13;;
72125;SDS011;59999;51.676;22.650;2023-03-16T03:21:04;26.50;;;9.75;;
72125;SDS011;59999;51.676;22.650;2023-03-16T03:23:30;24.17;;;7.80;;
72125;SDS011;59999;51.676;22.650;2023-03-16T03:25:57;21.83;;;8.95;;
72125;SDS011;59999;51.676;22.650;2023-03-16T03:28:23;20.50;;;7.30;;
72125;SDS011;59999;51.676;22.650;2023-03-16T03:30:49;24.48;;;9.13;;
72125;SDS011;59999;51.676;22.650;2023-03-16T03:33:16;26.90;;;8.38;;
72125;SDS011;59999;51.676;22.650;2023-03-16T03:35:43;24.90;;;8.90;;
72125;SDS011;59999;51.676;22.650;2023-03-16T03:38:09;23.20;;;9.45;;
72125;SDS011;59999;51.676;22.650;2023-03-16T03:40:36;26.52;;;9.25;;
72125;SDS011;59999;51.676;22.650;2023-03-16T03:43:02;52.90;;;21.75;;
72125;SDS011;59999;51.676;22.650;2023-03-16T03:45:29;29.10;;;11.67;;
72125;SDS011;59999;51.676;22.650;2023-03-16T03:47:55;34.75;;;14.60;;
72125;SDS011;59999;51.676;22.650;2023-03-16T03:50:21;32.65;;;13.60;;
72125;SDS011;59999;51.676;22.650;2023-03-16T03:52:47;29.07;;;10.93;;
72125;SDS011;59999;51.676;22.650;2023-03-16T03:55:13;61.72;;;27.67;;
72125;SDS011;59999;51.676;22.650;2023-03-16T03:57:39;42.38;;;16.95;;
72125;SDS011;59999;51.676;22.650;2023-03-16T04:00:08;29.57;;;12.63;;
72125;SDS011;59999;51.676;22.650;2023-03-16T04:02:36;24.58;;;8.20;;
72125;SDS011;59999;51.676;22.650;2023-03-16T04:05:03;25.17;;;10.77;;
72125;SDS011;59999;51.676;22.650;2023-03-16T04:07:30;27.05;;;10.77;;
72125;SDS011;59999;51.676;22.650;2023-03-16T04:09:56;26.20;;;10.02;;
72125;SDS011;59999;51.676;22.650;2023-03-16T04:12:22;27.10;;;9.87;;
72125;SDS011;59999;51.676;22.650;2023-03-16T04:14:48;23.08;;;9.05;;
72125;SDS011;59999;51.676;22.650;2023-03-16T04:17:13;23.73;;;9.32;;
72125;SDS011;59999;51.676;22.650;2023-03-16T04:19:40;25.25;;;11.02;;
72125;SDS011;59999;51.676;22.650;2023-03-16T04:22:05;31.50;;;11.40;;
72125;SDS011;59999;51.676;22.650;2023-03-16T04:24:32;24.95;;;9.45;;
72125;SDS011;59999;51.676;22.650;2023-03-16T04:26:59;24.37;;;8.40;;
72125;SDS011;59999;51.676;22.650;2023-03-16T04:29:25;26.83;;;9.05;;
72125;SDS011;59999;51.676;22.650;2023-03-16T04:31:52;38.25;;;15.18;;
72125;SDS011;59999;51.676;22.650;2023-03-16T04:34:19;24.90;;;8.70;;
72125;SDS011;59999;51.676;22.650;2023-03-16T04:36:52;23.48;;;8.52;;
72125;SDS011;59999;51.676;22.650;2023-03-16T04:39:20;28.60;;;8.33;;
72125;SDS011;59999;51.676;22.650;2023-03-16T04:41:46;32.25;;;11.27;;
72125;SDS011;59999;51.676;22.650;2023-03-16T04:44:12;26.20;;;9.68;;
72125;SDS011;59999;51.676;22.650;2023-03-16T04:46:39;26.40;;;8.15;;
72125;SDS011;59999;51.676;22.650;2023-03-16T04:49:05;25.80;;;8.38;;
72125;SDS011;59999;51.676;22.650;2023-03-16T04:51:34;26.77;;;7.93;;
72125;SDS011;59999;51.676;22.650;2023-03-16T04:54:02;26.58;;;7.93;;
72125;SDS011;59999;51.676;22.650;2023-03-16T04:56:28;26.30;;;8.35;;
72125;SDS011;59999;51.676;22.650;2023-03-16T04:58:54;23.23;;;8.63;;
72125;SDS011;59999;51.676;22.650;2023-03-16T05:01:21;27.00;;;8.65;;
72125;SDS011;59999;51.676;22.650;2023-03-16T05:03:48;27.90;;;8.30;;
72125;SDS011;59999;51.676;22.650;2023-03-16T05:06:17;25.77;;;9.25;;
72125;SDS011;59999;51.676;22.650;2023-03-16T05:08:43;26.42;;;8.82;;
72125;SDS011;59999;51.676;22.650;2023-03-16T05:11:09;21.55;;;8.27;;
72125;SDS011;59999;51.676;22.650;2023-03-16T05:13:35;21.97;;;8.10;;
72125;SDS011;59999;51.676;22.650;2023-03-16T05:16:01;25.50;;;8.43;;
72125;SDS011;59999;51.676;22.650;2023-03-16T05:18:27;24.70;;;7.93;;
72125;SDS011;59999;51.676;22.650;2023-03-16T05:20:53;24.03;;;7.93;;
72125;SDS011;59999;51.676;22.650;2023-03-16T05:23:20;20.77;;;8.65;;
72125;SDS011;59999;51.676;22.650;2023-03-16T05:25:47;22.80;;;8.93;;
72125;SDS011;59999;51.676;22.650;2023-03-16T05:28:14;24.80;;;8.70;;
72125;SDS011;59999;51.676;22.650;2023-03-16T05:30:40;27.10;;;8.40;;
72125;SDS011;59999;51.676;22.650;2023-03-16T05:33:07;23.02;;;7.93;;
72125;SDS011;59999;51.676;22.650;2023-03-16T05:35:33;22.23;;;7.40;;
72125;SDS011;59999;51.676;22.650;2023-03-16T05:38:00;21.25;;;7.35;;
72125;SDS011;59999;51.676;22.650;2023-03-16T05:40:26;25.10;;;8.93;;
72125;SDS011;59999;51.676;22.650;2023-03-16T05:42:53;24.07;;;9.07;;
72125;SDS011;59999;51.676;22.650;2023-03-16T05:45:21;22.38;;;7.35;;
72125;SDS011;59999;51.676;22.650;2023-03-16T05:47:48;22.77;;;8.38;;
72125;SDS011;59999;51.676;22.650;2023-03-16T05:50:14;26.20;;;8.75;;
72125;SDS011;59999;51.676;22.650;2023-03-16T05:52:42;23.17;;;8.77;;
72125;SDS011;59999;51.676;22.650;2023-03-16T05:55:12;27.00;;;8.25;;
72125;SDS011;59999;51.676;22.650;2023-03-16T05:57:39;22.80;;;7.38;;
72125;SDS011;59999;51.676;22.650;2023-03-16T06:00:06;25.20;;;7.47;;
72125;SDS011;59999;51.676;22.650;2023-03-16T06:02:41;24.95;;;7.80;;
72125;SDS011;59999;51.676;22.650;2023-03-16T06:05:09;22.80;;;8.27;;
72125;SDS011;59999;51.676;22.650;2023-03-16T06:07:35;24.05;;;8.27;;
72125;SDS011;59999;51.676;22.650;2023-03-16T06:10:01;24.58;;;8.02;;
72125;SDS011;59999;51.676;22.650;2023-03-16T06:12:29;23.08;;;7.63;;
72125;SDS011;59999;51.676;22.650;2023-03-16T06:14:55;21.97;;;7.90;;
72125;SDS011;59999;51.676;22.650;2023-03-16T06:17:21;23.17;;;7.90;;
72125;SDS011;59999;51.676;22.650;2023-03-16T06:19:47;22.08;;;7.18;;
72125;SDS011;59999;51.676;22.650;2023-03-16T06:22:13;27.48;;;7.95;;
72125;SDS011;59999;51.676;22.650;2023-03-16T06:24:39;25.83;;;8.43;;
72125;SDS011;59999;51.676;22.650;2023-03-16T06:27:05;24.13;;;7.32;;
72125;SDS011;59999;51.676;22.650;2023-03-16T06:29:31;23.63;;;8.18;;
72125;SDS011;59999;51.676;22.650;2023-03-16T06:31:57;23.63;;;8.52;;
72125;SDS011;59999;51.676;22.650;2023-03-16T06:34:24;26.48;;;7.88;;
72125;SDS011;59999;51.676;22.650;2023-03-16T06:36:50;22.83;;;8.07;;
72125;SDS011;59999;51.676;22.650;2023-03-16T06:39:15;20.53;;;7.47;;
72125;SDS011;59999;51.676;22.650;2023-03-16T06:41:42;21.60;;;7.47;;
72125;SDS011;59999;51.676;22.650;2023-03-16T06:44:08;21.13;;;6.60;;
72125;SDS011;59999;51.676;22.650;2023-03-16T06:46:36;21.83;;;7.18;;
72125;SDS011;59999;51.676;22.650;2023-03-16T06:49:03;21.00;;;6.80;;
72125;SDS011;59999;51.676;22.650;2023-03-16T06:51:29;20.27;;;6.88;;
72125;SDS011;59999;51.676;22.650;2023-03-16T06:53:56;17.55;;;7.00;;
72125;SDS011;59999;51.676;22.650;2023-03-16T06:56:22;19.63;;;6.50;;
72125;SDS011;59999;51.676;22.650;2023-03-16T06:58:49;18.00;;;6.20;;
72125;SDS011;59999;51.676;22.650;2023-03-16T07:01:16;24.03;;;8.30;;
72125;SDS011;59999;51.676;22.650;2023-03-16T07:03:42;19.77;;;6.25;;
72125;SDS011;59999;51.676;22.650;2023-03-16T07:06:26;19.15;;;6.38;;
72125;SDS011;59999;51.676;22.650;2023-03-16T07:08:52;18.83;;;5.82;;
72125;SDS011;59999;51.676;22.650;2023-03-16T07:11:18;20.13;;;6.97;;
72125;SDS011;59999;51.676;22.650;2023-03-16T07:13:44;20.15;;;7.57;;
72125;SDS011;59999;51.676;22.650;2023-03-16T07:16:10;20.67;;;7.20;;
72125;SDS011;59999;51.676;22.650;2023-03-16T07:18:36;18.47;;;6.77;;
72125;SDS011;59999;51.676;22.650;2023-03-16T07:21:04;19.70;;;7.13;;
72125;SDS011;59999;51.676;22.650;2023-03-16T07:23:31;21.15;;;7.72;;
72125;SDS011;59999;51.676;22.650;2023-03-16T07:25:56;16.33;;;6.63;;
72125;SDS011;59999;51.676;22.650;2023-03-16T07:28:22;17.53;;;5.90;;
72125;SDS011;59999;51.676;22.650;2023-03-16T07:30:49;18.58;;;5.95;;
72125;SDS011;59999;51.676;22.650;2023-03-16T07:33:16;19.25;;;5.90;;
72125;SDS011;59999;51.676;22.650;2023-03-16T07:35:42;18.73;;;6.57;;
72125;SDS011;59999;51.676;22.650;2023-03-16T07:38:08;16.30;;;5.32;;
72125;SDS011;59999;51.676;22.650;2023-03-16T07:40:38;14.77;;;5.25;;
72125;SDS011;59999;51.676;22.650;2023-03-16T07:43:05;17.42;;;5.60;;
72125;SDS011;59999;51.676;22.650;2023-03-16T07:45:31;17.38;;;5.70;;
72125;SDS011;59999;51.676;22.650;2023-03-16T07:47:57;16.60;;;5.65;;
72125;SDS011;59999;51.676;22.650;2023-03-16T07:50:22;17.35;;;5.90;;
72125;SDS011;59999;51.676;22.650;2023-03-16T07:52:49;17.92;;;6.70;;
72125;SDS011;59999;51.676;22.650;2023-03-16T07:55:15;16.53;;;5.43;;
72125;SDS011;59999;51.676;22.650;2023-03-16T07:57:41;14.73;;;5.20;;
72125;SDS011;59999;51.676;22.650;2023-03-16T08:00:12;16.65;;;5.50;;
72125;SDS011;59999;51.676;22.650;2023-03-16T08:02:39;16.10;;;6.20;;
72125;SDS011;59999;51.676;22.650;2023-03-16T08:05:05;14.13;;;4.37;;
72125;SDS011;59999;51.676;22.650;2023-03-16T08:07:31;13.98;;;4.22;;
72125;SDS011;59999;51.676;22.650;2023-03-16T08:09:57;16.67;;;5.32;;
72125;SDS011;59999;51.676;22.650;2023-03-16T08:12:23;13.50;;;3.92;;
72125;SDS011;59999;51.676;22.650;2023-03-16T08:14:48;17.83;;;5.43;;
72125;SDS011;59999;51.676;22.650;2023-03-16T08:17:15;13.93;;;5.05;;
72125;SDS011;59999;51.676;22.650;2023-03-16T08:19:41;15.40;;;5.20;;
72125;SDS011;59999;51.676;22.650;2023-03-16T08:22:07;18.92;;;5.88;;
72125;SDS011;59999;51.676;22.650;2023-03-16T08:24:33;22.07;;;6.90;;
72125;SDS011;59999;51.676;22.650;2023-03-16T08:26:59;17.35;;;5.43;;
72125;SDS011;59999;51.676;22.650;2023-03-16T08:29:25;16.27;;;4.65;;
72125;SDS011;59999;51.676;22.650;2023-03-16T08:31:52;27.13;;;9.57;;
72125;SDS011;59999;51.676;22.650;2023-03-16T08:34:22;58.00;;;21.20;;
72125;SDS011;59999;51.676;22.650;2023-03-16T08:36:49;16.95;;;5.10;;
72125;SDS011;59999;51.676;22.650;2023-03-16T08:39:15;17.13;;;3.75;;
72125;SDS011;59999;51.676;22.650;2023-03-16T08:41:41;16.17;;;5.10;;
72125;SDS011;59999;51.676;22.650;2023-03-16T08:44:10;13.23;;;4.07;;
72125;SDS011;59999;51.676;22.650;2023-03-16T08:46:37;13.55;;;4.38;;
72125;SDS011;59999;51.676;22.650;2023-03-16T08:49:04;22.30;;;6.18;;
72125;SDS011;59999;51.676;22.650;2023-03-16T08:51:31;14.32;;;4.07;;
72125;SDS011;59999;51.676;22.650;2023-03-16T08:53:57;18.03;;;4.00;;
72125;SDS011;59999;51.676;22.650;2023-03-16T08:56:24;14.35;;;3.60;;
72125;SDS011;59999;51.676;22.650;2023-03-16T08:58:50;14.43;;;4.00;;
72125;SDS011;59999;51.676;22.650;2023-03-16T09:01:17;15.57;;;5.13;;
72125;SDS011;59999;51.676;22.650;2023-03-16T09:03:43;12.38;;;3.97;;
72125;SDS011;59999;51.676;22.650;2023-03-16T09:06:11;16.45;;;4.40;;
72125;SDS011;59999;51.676;22.650;2023-03-16T09:08:39;10.27;;;2.55;;
72125;SDS011;59999;51.676;22.650;2023-03-16T09:11:10;18.38;;;4.00;;
72125;SDS011;59999;51.676;22.650;2023-03-16T09:13:38;11.27;;;2.58;;
72125;SDS011;59999;51.676;22.650;2023-03-16T09:16:06;13.23;;;3.00;;
72125;SDS011;59999;51.676;22.650;2023-03-16T09:18:32;16.95;;;3.53;;
72125;SDS011;59999;51.676;22.650;2023-03-16T09:21:00;13.82;;;2.30;;
72125;SDS011;59999;51.676;22.650;2023-03-16T09:23:28;8.65;;;2.40;;
72125;SDS011;59999;51.676;22.650;2023-03-16T09:25:58;8.68;;;2.15;;
72125;SDS011;59999;51.676;22.650;2023-03-16T09:28:29;11.35;;;2.20;;
72125;SDS011;59999;51.676;22.650;2023-03-16T09:30:56;9.45;;;2.20;;
72125;SDS011;59999;51.676;22.650;2023-03-16T09:33:23;8.02;;;1.80;;
72125;SDS011;59999;51.676;22.650;2023-03-16T09:35:51;10.43;;;2.33;;
72125;SDS011;59999;51.676;22.650;2023-03-16T09:38:17;11.55;;;2.72;;
72125;SDS011;59999;51.676;22.650;2023-03-16T09:40:44;6.35;;;1.48;;
72125;SDS011;59999;51.676;22.650;2023-03-16T09:48:56;7.80;;;2.03;;
72125;SDS011;59999;51.676;22.650;2023-03-16T09:54:14;7.95;;;1.42;;
72125;SDS011;59999;51.676;22.650;2023-03-16T09:56:47;9.65;;;1.63;;
72125;SDS011;59999;51.676;22.650;2023-03-16T09:59:15;8.60;;;2.60;;
72125;SDS011;59999;51.676;22.650;2023-03-16T10:04:56;7.20;;;1.60;;
72125;SDS011;59999;51.676;22.650;2023-03-16T10:07:35;8.70;;;1.52;;
72125;SDS011;59999;51.676;22.650;2023-03-16T10:12:37;10.18;;;2.08;;
72125;SDS011;59999;51.676;22.650;2023-03-16T10:17:45;9.20;;;2.22;;
72125;SDS011;59999;51.676;22.650;2023-03-16T10:20:20;8.88;;;1.98;;
72125;SDS011;59999;51.676;22.650;2023-03-16T10:22:49;9.60;;;1.60;;
72125;SDS011;59999;51.676;22.650;2023-03-16T10:25:27;13.05;;;2.83;;
72125;SDS011;59999;51.676;22.650;2023-03-16T10:28:00;10.15;;;1.88;;
72125;SDS011;59999;51.676;22.650;2023-03-16T10:32:56;8.52;;;1.85;;
72125;SDS011;59999;51.676;22.650;2023-03-16T10:37:55;8.27;;;2.22;;
72125;SDS011;59999;51.676;22.650;2023-03-16T10:40:21;6.90;;;2.13;;
72125;SDS011;59999;51.676;22.650;2023-03-16T10:42:48;8.77;;;2.70;;
72125;SDS011;59999;51.676;22.650;2023-03-16T10:45:30;9.90;;;2.70;;
72125;SDS011;59999;51.676;22.650;2023-03-16T10:48:12;21.73;;;6.57;;
72125;SDS011;59999;51.676;22.650;2023-03-16T10:50:41;9.85;;;3.00;;
72125;SDS011;59999;51.676;22.650;2023-03-16T10:53:14;7.35;;;2.00;;
72125;SDS011;59999;51.676;22.650;2023-03-16T10:55:44;10.82;;;3.05;;
72125;SDS011;59999;51.676;22.650;2023-03-16T10:58:33;8.05;;;2.03;;
72125;SDS011;59999;51.676;22.650;2023-03-16T11:01:00;9.15;;;2.58;;
72125;SDS011;59999;51.676;22.650;2023-03-16T11:03:28;9.25;;;2.50;;
72125;SDS011;59999;51.676;22.650;2023-03-16T11:06:04;8.63;;;1.80;;
72125;SDS011;59999;51.676;22.650;2023-03-16T11:08:38;9.63;;;2.72;;
72125;SDS011;59999;51.676;22.650;2023-03-16T11:11:09;8.57;;;2.38;;
72125;SDS011;59999;51.676;22.650;2023-03-16T11:13:42;7.90;;;2.47;;
72125;SDS011;59999;51.676;22.650;2023-03-16T11:19:20;8.75;;;1.92;;
72125;SDS011;59999;51.676;22.650;2023-03-16T11:22:00;6.65;;;1.73;;
72125;SDS011;59999;51.676;22.650;2023-03-16T11:29:58;6.55;;;1.08;;
72125;SDS011;59999;51.676;22.650;2023-03-16T11:32:37;12.00;;;3.20;;
72125;SDS011;59999;51.676;22.650;2023-03-16T11:35:12;6.40;;;1.40;;
72125;SDS011;59999;51.676;22.650;2023-03-16T11:54:45;7.40;;;1.85;;
72125;SDS011;59999;51.676;22.650;2023-03-16T12:08:11;6.28;;;1.50;;
72125;SDS011;59999;51.676;22.650;2023-03-16T12:15:54;6.43;;;1.15;;
72125;SDS011;59999;51.676;22.650;2023-03-16T12:18:36;5.43;;;1.00;;
72125;SDS011;59999;51.676;22.650;2023-03-16T12:21:21;6.35;;;0.70;;
72125;SDS011;59999;51.676;22.650;2023-03-16T12:23:54;5.40;;;1.00;;
72125;SDS011;59999;51.676;22.650;2023-03-16T12:26:25;6.43;;;1.20;;
72125;SDS011;59999;51.676;22.650;2023-03-16T12:28:55;7.60;;;1.80;;
72125;SDS011;59999;51.676;22.650;2023-03-16T12:31:26;7.32;;;1.60;;
72125;SDS011;59999;51.676;22.650;2023-03-16T12:34:07;5.80;;;1.60;;
72125;SDS011;59999;51.676;22.650;2023-03-16T12:45:11;3.95;;;0.95;;
72125;SDS011;59999;51.676;22.650;2023-03-16T12:50:15;6.60;;;1.20;;
72125;SDS011;59999;51.676;22.650;2023-03-16T12:52:49;8.57;;;1.42;;
72125;SDS011;59999;51.676;22.650;2023-03-16T12:55:18;6.43;;;1.67;;
72125;SDS011;59999;51.676;22.650;2023-03-16T12:57:45;5.78;;;1.50;;
72125;SDS011;59999;51.676;22.650;2023-03-16T13:00:16;4.18;;;1.10;;
72125;SDS011;59999;51.676;22.650;2023-03-16T13:02:48;6.00;;;1.20;;
72125;SDS011;59999;51.676;22.650;2023-03-16T13:05:17;5.88;;;1.15;;
72125;SDS011;59999;51.676;22.650;2023-03-16T13:08:02;5.70;;;1.30;;
72125;SDS011;59999;51.676;22.650;2023-03-16T13:10:31;5.50;;;1.27;;
72125;SDS011;59999;51.676;22.650;2023-03-16T13:13:06;6.10;;;1.45;;
72125;SDS011;59999;51.676;22.650;2023-03-16T13:15:38;7.28;;;1.40;;
72125;SDS011;59999;51.676;22.650;2023-03-16T13:18:17;4.95;;;1.15;;
72125;SDS011;59999;51.676;22.650;2023-03-16T13:28:28;9.82;;;2.05;;
72125;SDS011;59999;51.676;22.650;2023-03-16T13:30:58;6.88;;;1.98;;
72125;SDS011;59999;51.676;22.650;2023-03-16T13:33:34;6.40;;;1.73;;
72125;SDS011;59999;51.676;22.650;2023-03-16T13:36:03;5.30;;;1.27;;
72125;SDS011;59999;51.676;22.650;2023-03-16T13:38:30;7.15;;;2.08;;
72125;SDS011;59999;51.676;22.650;2023-03-16T13:41:00;12.25;;;3.90;;
72125;SDS011;59999;51.676;22.650;2023-03-16T13:43:29;8.02;;;2.38;;
72125;SDS011;59999;51.676;22.650;2023-03-16T13:46:12;10.35;;;2.72;;
72125;SDS011;59999;51.676;22.650;2023-03-16T13:48:42;9.27;;;2.17;;
72125;SDS011;59999;51.676;22.650;2023-03-16T13:51:18;7.70;;;1.50;;
72125;SDS011;59999;51.676;22.650;2023-03-16T13:53:47;7.32;;;1.80;;
72125;SDS011;59999;51.676;22.650;2023-03-16T13:56:14;7.93;;;1.77;;
72125;SDS011;59999;51.676;22.650;2023-03-16T13:58:44;6.53;;;1.77;;
72125;SDS011;59999;51.676;22.650;2023-03-16T14:01:34;6.43;;;1.40;;
72125;SDS011;59999;51.676;22.650;2023-03-16T14:04:00;5.70;;;1.70;;
72125;SDS011;59999;51.676;22.650;2023-03-16T14:06:34;9.30;;;2.67;;
72125;SDS011;59999;51.676;22.650;2023-03-16T14:09:02;6.88;;;2.40;;
72125;SDS011;59999;51.676;22.650;2023-03-16T14:11:30;10.25;;;2.70;;
72125;SDS011;59999;51.676;22.650;2023-03-16T14:13:57;12.30;;;3.37;;
72125;SDS011;59999;51.676;22.650;2023-03-16T14:16:26;7.32;;;1.77;;
72125;SDS011;59999;51.676;22.650;2023-03-16T14:18:57;6.90;;;1.63;;
72125;SDS011;59999;51.676;22.650;2023-03-16T14:21:27;7.18;;;1.70;;
72125;SDS011;59999;51.676;22.650;2023-03-16T14:23:57;6.80;;;1.98;;
72125;SDS011;59999;51.676;22.650;2023-03-16T14:26:24;7.80;;;1.98;;
72125;SDS011;59999;51.676;22.650;2023-03-16T14:29:02;7.72;;;2.40;;
72125;SDS011;59999;51.676;22.650;2023-03-16T14:31:35;6.80;;;1.88;;
72125;SDS011;59999;51.676;22.650;2023-03-16T14:39:36;6.30;;;1.70;;
72125;SDS011;59999;51.676;22.650;2023-03-16T14:42:03;7.25;;;1.45;;
72125;SDS011;59999;51.676;22.650;2023-03-16T14:44:31;11.90;;;3.90;;
72125;SDS011;59999;51.676;22.650;2023-03-16T14:47:00;19.83;;;6.32;;
72125;SDS011;59999;51.676;22.650;2023-03-16T14:49:29;47.15;;;17.85;;
72125;SDS011;59999;51.676;22.650;2023-03-16T14:51:58;7.75;;;2.60;;
72125;SDS011;59999;51.676;22.650;2023-03-16T14:54:44;10.65;;;3.50;;
72125;SDS011;59999;51.676;22.650;2023-03-16T14:57:11;13.90;;;5.43;;
72125;SDS011;59999;51.676;22.650;2023-03-16T14:59:41;8.93;;;3.05;;
72125;SDS011;59999;51.676;22.650;2023-03-16T15:02:13;7.97;;;2.15;;
72125;SDS011;59999;51.676;22.650;2023-03-16T15:04:42;6.72;;;1.90;;
72125;SDS011;59999;51.676;22.650;2023-03-16T15:07:25;7.22;;;2.75;;
72125;SDS011;59999;51.676;22.650;2023-03-16T15:09:55;11.38;;;3.35;;
72125;SDS011;59999;51.676;22.650;2023-03-16T15:12:45;8.50;;;2.67;;
72125;SDS011;59999;51.676;22.650;2023-03-16T15:15:19;8.65;;;2.38;;
72125;SDS011;59999;51.676;22.650;2023-03-16T15:17:50;7.32;;;2.33;;
72125;SDS011;59999;51.676;22.650;2023-03-16T15:20:18;9.55;;;3.00;;
72125;SDS011;59999;51.676;22.650;2023-03-16T15:22:48;8.52;;;2.70;;
72125;SDS011;59999;51.676;22.650;2023-03-16T15:25:34;9.30;;;2.70;;
72125;SDS011;59999;51.676;22.650;2023-03-16T15:28:09;9.02;;;2.78;;
72125;SDS011;59999;51.676;22.650;2023-03-16T15:30:36;7.45;;;2.40;;
72125;SDS011;59999;51.676;22.650;2023-03-16T15:33:02;7.40;;;2.15;;
72125;SDS011;59999;51.676;22.650;2023-03-16T15:35:28;10.75;;;2.92;;
72125;SDS011;59999;51.676;22.650;2023-03-16T15:37:54;10.02;;;2.90;;
72125;SDS011;59999;51.676;22.650;2023-03-16T15:40:22;9.00;;;3.15;;
72125;SDS011;59999;51.676;22.650;2023-03-16T15:42:50;10.90;;;3.10;;
72125;SDS011;59999;51.676;22.650;2023-03-16T15:45:18;8.88;;;2.63;;
72125;SDS011;59999;51.676;22.650;2023-03-16T15:47:46;9.27;;;2.65;;
72125;SDS011;59999;51.676;22.650;2023-03-16T15:50:13;8.65;;;2.65;;
72125;SDS011;59999;51.676;22.650;2023-03-16T15:52:41;11.05;;;2.80;;
72125;SDS011;59999;51.676;22.650;2023-03-16T15:55:15;8.73;;;2.92;;
72125;SDS011;59999;51.676;22.650;2023-03-16T15:57:44;10.38;;;3.28;;
72125;SDS011;59999;51.676;22.650;2023-03-16T16:03:09;13.48;;;2.40;;
72125;SDS011;59999;51.676;22.650;2023-03-16T16:05:36;9.68;;;2.08;;
72125;SDS011;59999;51.676;22.650;2023-03-16T16:08:02;6.70;;;2.25;;
72125;SDS011;59999;51.676;22.650;2023-03-16T16:10:28;69.57;;;30.58;;
72125;SDS011;59999;51.676;22.650;2023-03-16T16:12:54;10.98;;;4.03;;
72125;SDS011;59999;51.676;22.650;2023-03-16T16:15:28;12.50;;;4.25;;
72125;SDS011;59999;51.676;22.650;2023-03-16T16:17:58;15.95;;;7.28;;